sensor_id;sensor_type;location;lat;lon;timestamp;temperature;humidity
516;DHT22;244;48.508;9.052;2023-03-01T00:02:05;0.30;8.50
516;DHT22;244;48.508;9.052;2023-03-01T00:04:32;0.30;9.20
516;DHT22;244;48.508;9.052;2023-03-01T00:07:01;0.20;8.60
516;DHT22;244;48.508;9.052;2023-03-01T00:09:30;0.20;8.60
516;DHT22;244;48.508;9.052;2023-03-01T00:11:57;0.20;8.60
516;DHT22;244;48.508;9.052;2023-03-01T00:14:24;0.20;8.60
516;DHT22;244;48.508;9.052;2023-03-01T00:16:51;0.10;8.70
516;DHT22;244;48.508;9.052;2023-03-01T00:19:19;0.10;8.80
516;DHT22;244;48.508;9.052;2023-03-01T00:21:48;0.10;8.90
516;DHT22;244;48.508;9.052;2023-03-01T00:24:15;0.10;9.00
516;DHT22;244;48.508;9.052;2023-03-01T00:26:44;0.00;9.20
516;DHT22;244;48.508;9.052;2023-03-01T00:29:12;0.00;9.30
516;DHT22;244;48.508;9.052;2023-03-01T00:31:39;0.00;9.30
516;DHT22;244;48.508;9.052;2023-03-01T00:34:06;0.00;9.30
516;DHT22;244;48.508;9.052;2023-03-01T00:36:35;0.00;9.30
516;DHT22;244;48.508;9.052;2023-03-01T00:39:04;0.00;9.30
516;DHT22;244;48.508;9.052;2023-03-01T00:41:31;-0.10;9.20
516;DHT22;244;48.508;9.052;2023-03-01T00:44:01;-0.10;9.20
516;DHT22;244;48.508;9.052;2023-03-01T00:46:28;-0.20;9.20
516;DHT22;244;48.508;9.052;2023-03-01T00:48:56;-0.20;9.20
516;DHT22;244;48.508;9.052;2023-03-01T00:51:26;-0.20;9.20
516;DHT22;244;48.508;9.052;2023-03-01T00:53:54;-0.20;9.20
516;DHT22;244;48.508;9.052;2023-03-01T00:56:22;-0.20;9.20
516;DHT22;244;48.508;9.052;2023-03-01T00:58:55;-0.30;9.70
516;DHT22;244;48.508;9.052;2023-03-01T01:01:42;-0.30;9.10
516;DHT22;244;48.508;9.052;2023-03-01T01:04:11;-0.30;9.20
516;DHT22;244;48.508;9.052;2023-03-01T01:06:40;-0.30;9.30
516;DHT22;244;48.508;9.052;2023-03-01T01:09:09;-0.40;9.30
516;DHT22;244;48.508;9.052;2023-03-01T01:11:43;-0.40;9.40
516;DHT22;244;48.508;9.052;2023-03-01T01:14:10;-0.40;9.50
516;DHT22;244;48.508;9.052;2023-03-01T01:16:37;-0.40;9.60
516;DHT22;244;48.508;9.052;2023-03-01T01:19:06;-0.40;9.60
516;DHT22;244;48.508;9.052;2023-03-01T01:21:33;-0.50;9.60
516;DHT22;244;48.508;9.052;2023-03-01T01:24:00;-0.50;9.70
516;DHT22;244;48.508;9.052;2023-03-01T01:26:30;-0.50;9.80
516;DHT22;244;48.508;9.052;2023-03-01T01:28:58;-0.50;9.80
516;DHT22;244;48.508;9.052;2023-03-01T01:31:26;-0.50;9.90
516;DHT22;244;48.508;9.052;2023-03-01T01:33:55;-0.50;9.90
516;DHT22;244;48.508;9.052;2023-03-01T01:36:23;-0.60;10.60
516;DHT22;244;48.508;9.052;2023-03-01T01:38:50;-0.60;10.00
516;DHT22;244;48.508;9.052;2023-03-01T01:41:19;-0.60;10.00
516;DHT22;244;48.508;9.052;2023-03-01T01:43:48;-0.60;10.10
516;DHT22;244;48.508;9.052;2023-03-01T01:46:25;-0.60;10.20
516;DHT22;244;48.508;9.052;2023-03-01T01:48:55;-0.70;10.10
516;DHT22;244;48.508;9.052;2023-03-01T01:51:29;-0.60;10.20
516;DHT22;244;48.508;9.052;2023-03-01T01:54:07;-0.60;10.20
516;DHT22;244;48.508;9.052;2023-03-01T01:56:37;-0.50;10.40
516;DHT22;244;48.508;9.052;2023-03-01T01:59:06;-0.40;10.40
516;DHT22;244;48.508;9.052;2023-03-01T02:01:33;-0.40;10.30
516;DHT22;244;48.508;9.052;2023-03-01T02:04:01;-0.20;10.30
516;DHT22;244;48.508;9.052;2023-03-01T02:06:32;-0.10;10.30
516;DHT22;244;48.508;9.052;2023-03-01T02:09:05;0.00;10.80
516;DHT22;244;48.508;9.052;2023-03-01T02:11:33;0.10;10.10
516;DHT22;244;48.508;9.052;2023-03-01T02:14:03;0.20;10.10
516;DHT22;244;48.508;9.052;2023-03-01T02:16:30;0.20;9.90
516;DHT22;244;48.508;9.052;2023-03-01T02:18:58;0.30;9.90
516;DHT22;244;48.508;9.052;2023-03-01T02:21:34;0.40;9.70
516;DHT22;244;48.508;9.052;2023-03-01T02:24:10;0.50;9.60
516;DHT22;244;48.508;9.052;2023-03-01T02:26:47;0.50;9.60
516;DHT22;244;48.508;9.052;2023-03-01T02:29:16;0.60;9.70
516;DHT22;244;48.508;9.052;2023-03-01T02:31:44;0.60;9.70
516;DHT22;244;48.508;9.052;2023-03-01T02:34:13;0.70;9.80
516;DHT22;244;48.508;9.052;2023-03-01T02:36:42;0.70;9.80
516;DHT22;244;48.508;9.052;2023-03-01T02:39:15;0.80;9.80
516;DHT22;244;48.508;9.052;2023-03-01T02:41:46;0.80;9.80
516;DHT22;244;48.508;9.052;2023-03-01T02:44:13;0.80;9.80
516;DHT22;244;48.508;9.052;2023-03-01T02:46:47;0.90;9.80
516;DHT22;244;48.508;9.052;2023-03-01T02:49:24;0.90;9.80
516;DHT22;244;48.508;9.052;2023-03-01T02:52:20;1.00;9.80
516;DHT22;244;48.508;9.052;2023-03-01T02:54:52;1.00;9.70
516;DHT22;244;48.508;9.052;2023-03-01T02:57:22;1.00;9.70
516;DHT22;244;48.508;9.052;2023-03-01T02:59:51;1.00;9.60
516;DHT22;244;48.508;9.052;2023-03-01T03:02:23;1.00;9.50
516;DHT22;244;48.508;9.052;2023-03-01T03:05:03;1.00;9.50
516;DHT22;244;48.508;9.052;2023-03-01T03:07:32;1.00;10.10
516;DHT22;244;48.508;9.052;2023-03-01T03:10:00;1.10;10.10
516;DHT22;244;48.508;9.052;2023-03-01T03:12:27;1.10;9.50
516;DHT22;244;48.508;9.052;2023-03-01T03:14:54;1.10;9.40
516;DHT22;244;48.508;9.052;2023-03-01T03:17:22;1.10;9.40
516;DHT22;244;48.508;9.052;2023-03-01T03:19:49;1.10;9.40
516;DHT22;244;48.508;9.052;2023-03-01T03:22:16;1.10;9.40
516;DHT22;244;48.508;9.052;2023-03-01T03:24:43;1.10;9.40
516;DHT22;244;48.508;9.052;2023-03-01T03:27:10;1.10;9.40
516;DHT22;244;48.508;9.052;2023-03-01T03:29:37;1.20;9.50
516;DHT22;244;48.508;9.052;2023-03-01T03:32:04;1.20;9.50
516;DHT22;244;48.508;9.052;2023-03-01T03:34:32;1.20;9.60
516;DHT22;244;48.508;9.052;2023-03-01T03:36:59;1.20;9.60
516;DHT22;244;48.508;9.052;2023-03-01T03:39:27;1.20;10.30
516;DHT22;244;48.508;9.052;2023-03-01T03:41:54;1.30;9.80
516;DHT22;244;48.508;9.052;2023-03-01T03:44:22;1.30;9.80
516;DHT22;244;48.508;9.052;2023-03-01T03:46:48;1.30;10.50
516;DHT22;244;48.508;9.052;2023-03-01T03:49:15;1.30;9.70
516;DHT22;244;48.508;9.052;2023-03-01T03:51:45;1.40;9.80
516;DHT22;244;48.508;9.052;2023-03-01T03:54:12;1.40;9.70
516;DHT22;244;48.508;9.052;2023-03-01T03:56:39;1.40;9.70
516;DHT22;244;48.508;9.052;2023-03-01T03:59:06;1.40;9.70
516;DHT22;244;48.508;9.052;2023-03-01T04:01:33;1.40;10.40
516;DHT22;244;48.508;9.052;2023-03-01T04:04:00;1.40;9.80
516;DHT22;244;48.508;9.052;2023-03-01T04:06:30;1.40;9.80
516;DHT22;244;48.508;9.052;2023-03-01T04:08:58;1.50;9.90
516;DHT22;244;48.508;9.052;2023-03-01T04:11:28;1.50;9.90
516;DHT22;244;48.508;9.052;2023-03-01T04:13:56;1.50;9.90
516;DHT22;244;48.508;9.052;2023-03-01T04:16:24;1.50;9.90
516;DHT22;244;48.508;9.052;2023-03-01T04:18:51;1.50;9.90
516;DHT22;244;48.508;9.052;2023-03-01T04:21:19;1.50;9.90
516;DHT22;244;48.508;9.052;2023-03-01T04:23:46;1.50;10.00
516;DHT22;244;48.508;9.052;2023-03-01T04:26:15;1.50;9.90
516;DHT22;244;48.508;9.052;2023-03-01T04:28:42;1.60;10.00
516;DHT22;244;48.508;9.052;2023-03-01T04:31:12;1.60;10.00
516;DHT22;244;48.508;9.052;2023-03-01T04:33:42;1.60;10.00
516;DHT22;244;48.508;9.052;2023-03-01T04:36:09;1.60;10.00
516;DHT22;244;48.508;9.052;2023-03-01T04:38:37;1.60;10.00
516;DHT22;244;48.508;9.052;2023-03-01T04:41:05;1.60;10.10
516;DHT22;244;48.508;9.052;2023-03-01T04:43:34;1.60;10.20
516;DHT22;244;48.508;9.052;2023-03-01T04:46:02;1.60;10.20
516;DHT22;244;48.508;9.052;2023-03-01T04:48:30;1.70;10.20
516;DHT22;244;48.508;9.052;2023-03-01T04:50:58;1.70;10.20
516;DHT22;244;48.508;9.052;2023-03-01T04:53:25;1.70;10.10
516;DHT22;244;48.508;9.052;2023-03-01T04:55:54;1.70;10.10
516;DHT22;244;48.508;9.052;2023-03-01T04:58:21;1.70;10.10
516;DHT22;244;48.508;9.052;2023-03-01T05:00:49;1.80;10.20
516;DHT22;244;48.508;9.052;2023-03-01T05:03:17;1.80;10.10
516;DHT22;244;48.508;9.052;2023-03-01T05:05:46;1.80;10.20
516;DHT22;244;48.508;9.052;2023-03-01T05:08:13;1.80;10.20
516;DHT22;244;48.508;9.052;2023-03-01T05:10:45;1.90;10.20
516;DHT22;244;48.508;9.052;2023-03-01T05:13:13;1.90;10.30
516;DHT22;244;48.508;9.052;2023-03-01T05:15:46;1.90;10.20
516;DHT22;244;48.508;9.052;2023-03-01T05:18:14;1.90;10.10
516;DHT22;244;48.508;9.052;2023-03-01T05:20:41;2.00;10.20
516;DHT22;244;48.508;9.052;2023-03-01T05:23:10;2.00;10.20
516;DHT22;244;48.508;9.052;2023-03-01T05:25:37;2.00;10.20
516;DHT22;244;48.508;9.052;2023-03-01T05:28:07;2.00;10.10
516;DHT22;244;48.508;9.052;2023-03-01T05:30:36;2.10;10.20
516;DHT22;244;48.508;9.052;2023-03-01T05:33:06;2.10;10.20
516;DHT22;244;48.508;9.052;2023-03-01T05:35:40;2.10;10.30
516;DHT22;244;48.508;9.052;2023-03-01T05:38:08;2.10;10.20
516;DHT22;244;48.508;9.052;2023-03-01T05:40:39;2.10;10.20
516;DHT22;244;48.508;9.052;2023-03-01T05:43:06;2.20;10.20
516;DHT22;244;48.508;9.052;2023-03-01T05:45:33;2.20;10.10
516;DHT22;244;48.508;9.052;2023-03-01T05:48:02;2.20;10.20
516;DHT22;244;48.508;9.052;2023-03-01T05:50:33;2.20;10.20
516;DHT22;244;48.508;9.052;2023-03-01T05:53:03;2.30;10.20
516;DHT22;244;48.508;9.052;2023-03-01T05:55:34;2.30;10.20
516;DHT22;244;48.508;9.052;2023-03-01T05:58:02;2.30;10.10
516;DHT22;244;48.508;9.052;2023-03-01T06:00:30;2.30;10.10
516;DHT22;244;48.508;9.052;2023-03-01T06:02:58;2.30;10.10
516;DHT22;244;48.508;9.052;2023-03-01T06:05:26;2.40;10.10
516;DHT22;244;48.508;9.052;2023-03-01T06:07:53;2.40;10.10
516;DHT22;244;48.508;9.052;2023-03-01T06:10:22;2.40;10.10
516;DHT22;244;48.508;9.052;2023-03-01T06:12:49;2.40;10.10
516;DHT22;244;48.508;9.052;2023-03-01T06:15:16;2.40;10.10
516;DHT22;244;48.508;9.052;2023-03-01T06:17:45;2.50;10.20
516;DHT22;244;48.508;9.052;2023-03-01T06:20:14;2.50;10.10
516;DHT22;244;48.508;9.052;2023-03-01T06:22:42;2.50;10.10
516;DHT22;244;48.508;9.052;2023-03-01T06:25:09;2.50;10.10
516;DHT22;244;48.508;9.052;2023-03-01T06:27:40;2.50;10.20
516;DHT22;244;48.508;9.052;2023-03-01T06:30:09;2.60;10.10
516;DHT22;244;48.508;9.052;2023-03-01T06:32:36;2.60;10.10
516;DHT22;244;48.508;9.052;2023-03-01T06:35:08;2.60;10.10
516;DHT22;244;48.508;9.052;2023-03-01T06:37:35;2.60;10.00
516;DHT22;244;48.508;9.052;2023-03-01T06:40:02;2.70;10.10
516;DHT22;244;48.508;9.052;2023-03-01T06:42:34;2.70;10.00
516;DHT22;244;48.508;9.052;2023-03-01T06:45:03;2.80;10.10
516;DHT22;244;48.508;9.052;2023-03-01T06:47:31;2.70;10.10
516;DHT22;244;48.508;9.052;2023-03-01T06:49:58;2.70;10.20
516;DHT22;244;48.508;9.052;2023-03-01T06:52:26;2.60;10.30
516;DHT22;244;48.508;9.052;2023-03-01T06:54:53;2.60;10.40
516;DHT22;244;48.508;9.052;2023-03-01T06:57:20;2.50;10.40
516;DHT22;244;48.508;9.052;2023-03-01T06:59:47;2.50;10.50
516;DHT22;244;48.508;9.052;2023-03-01T07:02:15;2.50;10.60
516;DHT22;244;48.508;9.052;2023-03-01T07:04:42;2.50;10.60
516;DHT22;244;48.508;9.052;2023-03-01T07:07:10;2.40;10.60
516;DHT22;244;48.508;9.052;2023-03-01T07:09:37;2.40;10.60
516;DHT22;244;48.508;9.052;2023-03-01T07:12:04;2.40;10.70
516;DHT22;244;48.508;9.052;2023-03-01T07:14:31;2.40;10.80
516;DHT22;244;48.508;9.052;2023-03-01T07:16:59;2.50;10.90
516;DHT22;244;48.508;9.052;2023-03-01T07:19:27;2.50;10.80
516;DHT22;244;48.508;9.052;2023-03-01T07:21:54;2.50;10.60
516;DHT22;244;48.508;9.052;2023-03-01T07:24:22;2.60;10.60
516;DHT22;244;48.508;9.052;2023-03-01T07:26:49;2.60;10.50
516;DHT22;244;48.508;9.052;2023-03-01T07:29:17;2.70;10.50
516;DHT22;244;48.508;9.052;2023-03-01T07:31:44;2.70;10.40
516;DHT22;244;48.508;9.052;2023-03-01T07:34:12;2.70;10.40
516;DHT22;244;48.508;9.052;2023-03-01T07:36:40;2.80;10.30
516;DHT22;244;48.508;9.052;2023-03-01T07:39:09;2.90;10.30
516;DHT22;244;48.508;9.052;2023-03-01T07:41:36;2.90;10.20
516;DHT22;244;48.508;9.052;2023-03-01T07:44:03;3.00;10.20
516;DHT22;244;48.508;9.052;2023-03-01T07:46:30;3.00;10.10
516;DHT22;244;48.508;9.052;2023-03-01T07:48:58;3.10;10.00
516;DHT22;244;48.508;9.052;2023-03-01T07:51:25;3.10;9.90
516;DHT22;244;48.508;9.052;2023-03-01T07:53:53;3.20;9.80
516;DHT22;244;48.508;9.052;2023-03-01T07:56:20;3.20;9.70
516;DHT22;244;48.508;9.052;2023-03-01T07:58:47;3.30;9.80
516;DHT22;244;48.508;9.052;2023-03-01T08:01:16;3.30;9.60
516;DHT22;244;48.508;9.052;2023-03-01T08:03:43;3.40;9.60
516;DHT22;244;48.508;9.052;2023-03-01T08:06:12;3.40;9.40
516;DHT22;244;48.508;9.052;2023-03-01T08:08:39;3.40;9.30
516;DHT22;244;48.508;9.052;2023-03-01T08:11:10;3.50;9.10
516;DHT22;244;48.508;9.052;2023-03-01T08:13:38;3.50;9.10
516;DHT22;244;48.508;9.052;2023-03-01T08:16:07;3.60;9.10
516;DHT22;244;48.508;9.052;2023-03-01T08:18:34;3.60;9.10
516;DHT22;244;48.508;9.052;2023-03-01T08:21:02;3.60;8.90
516;DHT22;244;48.508;9.052;2023-03-01T08:23:29;3.70;8.60
516;DHT22;244;48.508;9.052;2023-03-01T08:26:04;3.70;8.50
516;DHT22;244;48.508;9.052;2023-03-01T08:28:33;3.70;8.50
516;DHT22;244;48.508;9.052;2023-03-01T08:31:00;3.70;8.40
516;DHT22;244;48.508;9.052;2023-03-01T08:33:27;3.70;8.40
516;DHT22;244;48.508;9.052;2023-03-01T08:36:03;3.70;8.20
516;DHT22;244;48.508;9.052;2023-03-01T08:38:30;3.80;8.20
516;DHT22;244;48.508;9.052;2023-03-01T08:41:00;3.80;8.10
516;DHT22;244;48.508;9.052;2023-03-01T08:43:27;3.80;8.00
516;DHT22;244;48.508;9.052;2023-03-01T08:45:56;3.80;8.00
516;DHT22;244;48.508;9.052;2023-03-01T08:48:23;3.80;7.90
516;DHT22;244;48.508;9.052;2023-03-01T08:50:50;3.80;7.90
516;DHT22;244;48.508;9.052;2023-03-01T08:53:17;3.90;7.90
516;DHT22;244;48.508;9.052;2023-03-01T08:55:43;3.90;7.80
516;DHT22;244;48.508;9.052;2023-03-01T08:58:11;4.00;7.80
516;DHT22;244;48.508;9.052;2023-03-01T09:00:38;4.10;7.80
516;DHT22;244;48.508;9.052;2023-03-01T09:03:07;4.20;7.50
516;DHT22;244;48.508;9.052;2023-03-01T09:05:34;4.30;7.60
516;DHT22;244;48.508;9.052;2023-03-01T09:08:02;4.30;7.40
516;DHT22;244;48.508;9.052;2023-03-01T09:10:29;4.40;7.20
516;DHT22;244;48.508;9.052;2023-03-01T09:12:56;4.40;7.00
516;DHT22;244;48.508;9.052;2023-03-01T09:15:23;4.50;6.90
516;DHT22;244;48.508;9.052;2023-03-01T09:17:50;4.50;6.70
516;DHT22;244;48.508;9.052;2023-03-01T09:20:18;4.60;6.70
516;DHT22;244;48.508;9.052;2023-03-01T09:22:45;4.70;6.40
516;DHT22;244;48.508;9.052;2023-03-01T09:25:12;4.70;6.10
516;DHT22;244;48.508;9.052;2023-03-01T09:27:39;4.80;6.00
516;DHT22;244;48.508;9.052;2023-03-01T09:30:07;4.80;5.90
516;DHT22;244;48.508;9.052;2023-03-01T09:32:35;4.90;5.80
516;DHT22;244;48.508;9.052;2023-03-01T09:35:02;4.90;5.50
516;DHT22;244;48.508;9.052;2023-03-01T09:37:32;5.00;5.50
516;DHT22;244;48.508;9.052;2023-03-01T09:39:59;5.00;5.30
516;DHT22;244;48.508;9.052;2023-03-01T09:42:26;5.10;5.30
516;DHT22;244;48.508;9.052;2023-03-01T09:45:02;5.20;5.30
516;DHT22;244;48.508;9.052;2023-03-01T09:47:33;5.20;5.20
516;DHT22;244;48.508;9.052;2023-03-01T09:50:05;5.30;5.00
516;DHT22;244;48.508;9.052;2023-03-01T09:52:40;5.30;4.80
516;DHT22;244;48.508;9.052;2023-03-01T09:55:11;5.30;4.80
516;DHT22;244;48.508;9.052;2023-03-01T09:57:43;5.40;4.80
516;DHT22;244;48.508;9.052;2023-03-01T10:00:24;5.40;4.30
516;DHT22;244;48.508;9.052;2023-03-01T10:02:57;5.40;4.50
516;DHT22;244;48.508;9.052;2023-03-01T10:05:41;5.50;4.40
516;DHT22;244;48.508;9.052;2023-03-01T10:08:42;5.60;4.50
516;DHT22;244;48.508;9.052;2023-03-01T10:11:20;5.70;4.40
516;DHT22;244;48.508;9.052;2023-03-01T10:13:52;5.70;4.40
516;DHT22;244;48.508;9.052;2023-03-01T10:16:26;5.70;4.70
516;DHT22;244;48.508;9.052;2023-03-01T10:18:58;5.70;4.00
516;DHT22;244;48.508;9.052;2023-03-01T10:21:27;5.80;4.00
516;DHT22;244;48.508;9.052;2023-03-01T10:23:57;5.80;4.00
516;DHT22;244;48.508;9.052;2023-03-01T10:26:40;5.80;4.10
516;DHT22;244;48.508;9.052;2023-03-01T10:29:12;5.80;4.00
516;DHT22;244;48.508;9.052;2023-03-01T10:31:42;5.90;4.70
516;DHT22;244;48.508;9.052;2023-03-01T10:34:13;5.90;4.10
516;DHT22;244;48.508;9.052;2023-03-01T10:36:41;6.00;4.00
516;DHT22;244;48.508;9.052;2023-03-01T10:39:16;6.00;4.00
516;DHT22;244;48.508;9.052;2023-03-01T10:41:58;6.10;4.00
516;DHT22;244;48.508;9.052;2023-03-01T10:44:38;6.20;3.80
516;DHT22;244;48.508;9.052;2023-03-01T10:47:11;6.30;3.80
516;DHT22;244;48.508;9.052;2023-03-01T10:49:39;6.30;3.40
516;DHT22;244;48.508;9.052;2023-03-01T10:52:20;6.40;3.30
516;DHT22;244;48.508;9.052;2023-03-01T10:54:54;6.40;3.10
516;DHT22;244;48.508;9.052;2023-03-01T10:57:33;6.40;3.00
516;DHT22;244;48.508;9.052;2023-03-01T11:00:22;6.50;3.00
516;DHT22;244;48.508;9.052;2023-03-01T11:03:01;6.50;2.80
516;DHT22;244;48.508;9.052;2023-03-01T11:05:28;6.60;2.90
516;DHT22;244;48.508;9.052;2023-03-01T11:07:57;6.60;2.80
516;DHT22;244;48.508;9.052;2023-03-01T11:10:27;6.70;2.80
516;DHT22;244;48.508;9.052;2023-03-01T11:13:07;6.80;2.60
516;DHT22;244;48.508;9.052;2023-03-01T11:15:35;6.80;2.40
516;DHT22;244;48.508;9.052;2023-03-01T11:18:02;6.90;2.20
516;DHT22;244;48.508;9.052;2023-03-01T11:20:32;6.90;2.20
516;DHT22;244;48.508;9.052;2023-03-01T11:23:02;7.00;2.10
516;DHT22;244;48.508;9.052;2023-03-01T11:25:35;7.00;2.00
516;DHT22;244;48.508;9.052;2023-03-01T11:28:05;7.10;2.00
516;DHT22;244;48.508;9.052;2023-03-01T11:30:35;7.10;1.90
516;DHT22;244;48.508;9.052;2023-03-01T11:33:11;7.20;2.00
516;DHT22;244;48.508;9.052;2023-03-01T11:35:44;7.30;2.60
516;DHT22;244;48.508;9.052;2023-03-01T11:38:19;7.50;2.20
516;DHT22;244;48.508;9.052;2023-03-01T11:40:51;7.70;2.10
516;DHT22;244;48.508;9.052;2023-03-01T11:43:24;7.80;1.90
516;DHT22;244;48.508;9.052;2023-03-01T11:46:26;7.90;1.80
516;DHT22;244;48.508;9.052;2023-03-01T11:49:07;8.10;1.70
516;DHT22;244;48.508;9.052;2023-03-01T11:51:43;8.20;1.30
516;DHT22;244;48.508;9.052;2023-03-01T11:54:18;8.20;1.00
516;DHT22;244;48.508;9.052;2023-03-01T11:56:54;8.30;1.00
516;DHT22;244;48.508;9.052;2023-03-01T11:59:50;8.40;1.00
516;DHT22;244;48.508;9.052;2023-03-01T12:02:40;8.50;1.00
516;DHT22;244;48.508;9.052;2023-03-01T12:05:36;8.60;1.00
516;DHT22;244;48.508;9.052;2023-03-01T12:08:11;8.60;1.00
516;DHT22;244;48.508;9.052;2023-03-01T12:10:48;8.70;1.00
516;DHT22;244;48.508;9.052;2023-03-01T12:13:47;8.70;1.00
516;DHT22;244;48.508;9.052;2023-03-01T12:16:44;8.70;1.00
516;DHT22;244;48.508;9.052;2023-03-01T12:22:30;8.90;1.00
516;DHT22;244;48.508;9.052;2023-03-01T12:25:12;8.80;1.00
516;DHT22;244;48.508;9.052;2023-03-01T12:30:49;8.80;1.00
516;DHT22;244;48.508;9.052;2023-03-01T12:33:28;8.90;1.00
516;DHT22;244;48.508;9.052;2023-03-01T12:36:19;8.90;1.00
516;DHT22;244;48.508;9.052;2023-03-01T12:38:59;9.00;1.00
516;DHT22;244;48.508;9.052;2023-03-01T12:41:35;9.00;1.00
516;DHT22;244;48.508;9.052;2023-03-01T12:44:11;9.10;1.00
516;DHT22;244;48.508;9.052;2023-03-01T12:46:57;9.20;1.00
516;DHT22;244;48.508;9.052;2023-03-01T12:49:30;9.20;1.00
516;DHT22;244;48.508;9.052;2023-03-01T12:52:01;9.20;1.00
516;DHT22;244;48.508;9.052;2023-03-01T12:54:31;9.30;1.00
516;DHT22;244;48.508;9.052;2023-03-01T12:57:06;9.30;1.00
516;DHT22;244;48.508;9.052;2023-03-01T12:59:38;9.40;1.00
516;DHT22;244;48.508;9.052;2023-03-01T13:02:15;9.50;1.00
516;DHT22;244;48.508;9.052;2023-03-01T13:05:06;9.70;1.00
516;DHT22;244;48.508;9.052;2023-03-01T13:07:37;9.80;1.00
516;DHT22;244;48.508;9.052;2023-03-01T13:10:21;9.90;1.00
516;DHT22;244;48.508;9.052;2023-03-01T13:13:01;10.00;1.00
516;DHT22;244;48.508;9.052;2023-03-01T13:15:31;10.10;1.00
516;DHT22;244;48.508;9.052;2023-03-01T13:18:01;10.10;1.00
516;DHT22;244;48.508;9.052;2023-03-01T13:20:33;10.10;1.00
516;DHT22;244;48.508;9.052;2023-03-01T13:23:04;10.20;1.00
516;DHT22;244;48.508;9.052;2023-03-01T13:25:32;10.30;1.00
516;DHT22;244;48.508;9.052;2023-03-01T13:31:07;10.40;1.00
516;DHT22;244;48.508;9.052;2023-03-01T13:33:44;10.40;1.00
516;DHT22;244;48.508;9.052;2023-03-01T13:39:31;10.40;1.00
516;DHT22;244;48.508;9.052;2023-03-01T13:41:59;10.40;1.00
516;DHT22;244;48.508;9.052;2023-03-01T13:44:30;10.40;1.00
516;DHT22;244;48.508;9.052;2023-03-01T13:47:02;10.40;1.00
516;DHT22;244;48.508;9.052;2023-03-01T13:49:41;10.50;1.00
516;DHT22;244;48.508;9.052;2023-03-01T13:52:34;10.50;1.00
516;DHT22;244;48.508;9.052;2023-03-01T13:55:06;10.50;1.00
516;DHT22;244;48.508;9.052;2023-03-01T13:57:44;10.50;1.00
516;DHT22;244;48.508;9.052;2023-03-01T14:00:35;10.50;1.00
516;DHT22;244;48.508;9.052;2023-03-01T14:03:10;10.50;1.00
516;DHT22;244;48.508;9.052;2023-03-01T14:05:38;10.40;1.00
516;DHT22;244;48.508;9.052;2023-03-01T14:08:19;10.40;1.00
516;DHT22;244;48.508;9.052;2023-03-01T14:10:55;10.50;1.00
516;DHT22;244;48.508;9.052;2023-03-01T14:13:33;10.60;1.00
516;DHT22;244;48.508;9.052;2023-03-01T14:16:14;10.70;1.00
516;DHT22;244;48.508;9.052;2023-03-01T14:18:49;10.80;1.00
516;DHT22;244;48.508;9.052;2023-03-01T14:21:19;10.80;1.00
516;DHT22;244;48.508;9.052;2023-03-01T14:23:48;10.90;1.00
516;DHT22;244;48.508;9.052;2023-03-01T14:26:20;11.00;1.00
516;DHT22;244;48.508;9.052;2023-03-01T14:28:48;11.00;1.00
516;DHT22;244;48.508;9.052;2023-03-01T14:31:35;11.10;1.00
516;DHT22;244;48.508;9.052;2023-03-01T14:34:02;11.10;1.00
516;DHT22;244;48.508;9.052;2023-03-01T14:36:30;11.10;1.00
516;DHT22;244;48.508;9.052;2023-03-01T14:38:57;11.00;1.00
516;DHT22;244;48.508;9.052;2023-03-01T14:41:34;10.90;1.00
516;DHT22;244;48.508;9.052;2023-03-01T14:44:05;11.00;1.00
516;DHT22;244;48.508;9.052;2023-03-01T14:46:34;11.00;1.00
516;DHT22;244;48.508;9.052;2023-03-01T14:49:04;11.00;1.00
516;DHT22;244;48.508;9.052;2023-03-01T14:51:37;11.00;1.00
516;DHT22;244;48.508;9.052;2023-03-01T14:54:11;10.90;1.00
516;DHT22;244;48.508;9.052;2023-03-01T14:56:47;10.90;1.00
516;DHT22;244;48.508;9.052;2023-03-01T14:59:14;10.90;1.00
516;DHT22;244;48.508;9.052;2023-03-01T15:01:41;10.90;1.00
516;DHT22;244;48.508;9.052;2023-03-01T15:04:12;10.90;1.00
516;DHT22;244;48.508;9.052;2023-03-01T15:06:40;10.80;1.00
516;DHT22;244;48.508;9.052;2023-03-01T15:09:14;10.80;1.00
516;DHT22;244;48.508;9.052;2023-03-01T15:11:42;10.80;1.00
516;DHT22;244;48.508;9.052;2023-03-01T15:14:28;10.80;1.00
516;DHT22;244;48.508;9.052;2023-03-01T15:16:56;10.70;1.00
516;DHT22;244;48.508;9.052;2023-03-01T15:19:26;10.70;1.00
516;DHT22;244;48.508;9.052;2023-03-01T15:21:55;10.70;1.00
516;DHT22;244;48.508;9.052;2023-03-01T15:24:24;10.70;1.00
516;DHT22;244;48.508;9.052;2023-03-01T15:26:55;10.60;1.00
516;DHT22;244;48.508;9.052;2023-03-01T15:29:24;10.60;1.00
516;DHT22;244;48.508;9.052;2023-03-01T15:31:58;10.50;1.00
516;DHT22;244;48.508;9.052;2023-03-01T15:34:27;10.40;1.00
516;DHT22;244;48.508;9.052;2023-03-01T15:36:56;10.30;1.00
516;DHT22;244;48.508;9.052;2023-03-01T15:39:40;10.30;1.00
516;DHT22;244;48.508;9.052;2023-03-01T15:42:10;10.20;1.00
516;DHT22;244;48.508;9.052;2023-03-01T15:44:38;10.20;1.00
516;DHT22;244;48.508;9.052;2023-03-01T15:47:24;10.20;1.00
516;DHT22;244;48.508;9.052;2023-03-01T15:49:53;10.20;1.00
516;DHT22;244;48.508;9.052;2023-03-01T15:52:23;10.10;1.00
516;DHT22;244;48.508;9.052;2023-03-01T15:54:55;10.10;1.00
516;DHT22;244;48.508;9.052;2023-03-01T15:57:22;10.10;1.00
516;DHT22;244;48.508;9.052;2023-03-01T15:59:49;10.20;1.00
516;DHT22;244;48.508;9.052;2023-03-01T16:02:17;10.20;1.00
516;DHT22;244;48.508;9.052;2023-03-01T16:04:46;10.20;1.00
516;DHT22;244;48.508;9.052;2023-03-01T16:07:14;10.20;1.00
516;DHT22;244;48.508;9.052;2023-03-01T16:09:41;10.20;1.00
516;DHT22;244;48.508;9.052;2023-03-01T16:12:14;10.30;1.00
516;DHT22;244;48.508;9.052;2023-03-01T16:14:41;10.30;1.00
516;DHT22;244;48.508;9.052;2023-03-01T16:17:08;10.20;1.00
516;DHT22;244;48.508;9.052;2023-03-01T16:19:37;10.20;1.00
516;DHT22;244;48.508;9.052;2023-03-01T16:22:04;10.10;1.00
516;DHT22;244;48.508;9.052;2023-03-01T16:24:31;10.10;1.00
516;DHT22;244;48.508;9.052;2023-03-01T16:26:58;10.00;1.00
516;DHT22;244;48.508;9.052;2023-03-01T16:29:25;9.90;1.00
516;DHT22;244;48.508;9.052;2023-03-01T16:31:52;9.80;1.00
516;DHT22;244;48.508;9.052;2023-03-01T16:34:18;9.60;1.00
516;DHT22;244;48.508;9.052;2023-03-01T16:36:48;9.50;1.00
516;DHT22;244;48.508;9.052;2023-03-01T16:39:16;9.40;1.00
516;DHT22;244;48.508;9.052;2023-03-01T16:41:43;9.30;1.00
516;DHT22;244;48.508;9.052;2023-03-01T16:44:10;9.10;1.00
516;DHT22;244;48.508;9.052;2023-03-01T16:46:37;9.10;1.00
516;DHT22;244;48.508;9.052;2023-03-01T16:49:04;8.90;1.00
516;DHT22;244;48.508;9.052;2023-03-01T16:51:30;8.90;1.00
516;DHT22;244;48.508;9.052;2023-03-01T16:54:01;8.80;1.00
516;DHT22;244;48.508;9.052;2023-03-01T16:56:30;8.70;1.00
516;DHT22;244;48.508;9.052;2023-03-01T16:58:58;8.60;1.00
516;DHT22;244;48.508;9.052;2023-03-01T17:01:25;8.50;1.00
516;DHT22;244;48.508;9.052;2023-03-01T17:03:58;8.40;1.00
516;DHT22;244;48.508;9.052;2023-03-01T17:06:26;8.30;1.00
516;DHT22;244;48.508;9.052;2023-03-01T17:08:53;8.30;1.00
516;DHT22;244;48.508;9.052;2023-03-01T17:11:21;8.20;1.00
516;DHT22;244;48.508;9.052;2023-03-01T17:13:48;8.10;1.00
516;DHT22;244;48.508;9.052;2023-03-01T17:16:17;8.10;1.00
516;DHT22;244;48.508;9.052;2023-03-01T17:18:45;8.00;1.00
516;DHT22;244;48.508;9.052;2023-03-01T17:21:13;7.90;1.00
516;DHT22;244;48.508;9.052;2023-03-01T17:23:42;7.90;1.00
516;DHT22;244;48.508;9.052;2023-03-01T17:26:10;7.80;1.00
516;DHT22;244;48.508;9.052;2023-03-01T17:28:39;7.70;1.00
516;DHT22;244;48.508;9.052;2023-03-01T17:31:08;7.70;1.00
516;DHT22;244;48.508;9.052;2023-03-01T17:33:35;7.60;1.00
516;DHT22;244;48.508;9.052;2023-03-01T17:36:02;7.60;1.00
516;DHT22;244;48.508;9.052;2023-03-01T17:38:29;7.50;1.00